KBNL/BNL METAR and TAF weather

Enter ICAO airport designator
Station Type Date Time Source
KBNL METAR 2019/08/21 22:15 UTC NOAA

KBNL 212215Z AUTO 22008KT 10SM VCTS FEW055 33/22 A3002 RMK AO2 LTG DSNT E-SW


Station Type Date Time Source
KBNL Decoded METAR 2019/08/21 22:15 UTC NOAA

Station name not available
Aug 21, 2019 - 06:15 PM EDT / 2019.08.21 2215 UTC
Wind: from the SW (220 degrees) at 9 MPH (8 KT):0
Visibility: 10 mile(s):0
Sky conditions: mostly clear
Weather: thunder in the vicinity; Lightning observed
Temperature: 91 F (33 C)
Heat index: 97.5 F (36.4 C):1
Dew Point: 71 F (22 C)
Relative Humidity: 52%
Pressure (altimeter): 30.02 in. Hg (1016 hPa)
ob: KBNL 212215Z AUTO 22008KT 10SM VCTS FEW055 33/22 A3002 RMK AO2 LTG DSNT E-SW
cycle: 22

Station Type Date Time Source
KBNL TAF UTC NOAA

Error!

Example: see airport list